createdAt,value
2018-03-23T00:00:52.617Z,19.53
2018-03-23T00:03:20.911Z,21.87
2018-03-23T00:05:48.413Z,18.23
2018-03-23T00:08:15.985Z,23.93
2018-03-23T00:10:43.598Z,23.50
2018-03-23T00:13:11.114Z,22.77
2018-03-23T00:15:38.617Z,23.67
2018-03-23T00:18:06.885Z,24.40
2018-03-23T00:20:35.175Z,22.27
2018-03-23T00:23:03.617Z,21.43
2018-03-23T00:25:31.175Z,26.27
2018-03-23T00:27:58.680Z,23.20
2018-03-23T00:30:26.263Z,23.13
2018-03-23T00:32:54.517Z,22.80
2018-03-23T00:35:22.199Z,26.80
2018-03-23T00:37:51.381Z,24.67
2018-03-23T00:40:18.951Z,27.93
2018-03-23T00:42:46.459Z,20.63
2018-03-23T00:45:13.985Z,22.23
2018-03-23T00:47:42.537Z,20.80
2018-03-23T00:50:16.063Z,22.27
2018-03-23T00:52:43.799Z,17.17
2018-03-23T00:55:11.378Z,22.83
2018-03-23T00:57:38.898Z,21.77
2018-03-23T01:00:06.407Z,21.97
2018-03-23T01:02:34.611Z,22.77
2018-03-23T01:05:02.893Z,17.57
2018-03-23T01:07:31.160Z,19.50
2018-03-23T01:09:59.847Z,21.23
2018-03-23T01:12:27.341Z,19.77
2018-03-23T01:14:55.071Z,20.50
2018-03-23T01:17:22.591Z,22.77
2018-03-23T01:19:50.127Z,21.77
2018-03-23T01:22:18.887Z,18.10
2018-03-23T01:24:46.420Z,23.33
2018-03-23T01:27:13.925Z,18.08
2018-03-23T01:29:41.518Z,18.43
2018-03-23T01:32:09.049Z,16.92
2018-03-23T01:34:36.585Z,19.92
2018-03-23T01:37:04.158Z,15.57
2018-03-23T01:39:31.656Z,19.67
2018-03-23T01:41:59.933Z,23.92
2018-03-23T01:44:28.306Z,20.92
2018-03-23T01:46:55.804Z,20.50
2018-03-23T01:49:23.304Z,20.27
2018-03-23T01:51:50.893Z,20.00
2018-03-23T01:54:18.642Z,22.23
2018-03-23T01:56:46.162Z,18.85
2018-03-23T01:59:13.678Z,20.95
2018-03-23T02:01:41.555Z,19.15
2018-03-23T02:04:09.237Z,19.52
2018-03-23T02:06:36.788Z,20.12
2018-03-23T02:09:04.794Z,17.23
2018-03-23T02:11:33.081Z,19.02
2018-03-23T02:14:01.343Z,16.73
2018-03-23T02:16:29.628Z,19.95
2018-03-23T02:18:57.905Z,20.42
2018-03-23T02:21:25.435Z,21.90
2018-03-23T02:23:52.950Z,21.42
2018-03-23T02:26:21.307Z,24.45
2018-03-23T02:28:48.832Z,20.98
2018-03-23T02:31:18.704Z,23.10
2018-03-23T02:33:47.090Z,20.08
2018-03-23T02:36:15.369Z,20.48
2018-03-23T02:38:43.641Z,17.10
2018-03-23T02:41:12.639Z,20.17
2018-03-23T02:43:40.893Z,18.55
2018-03-23T02:46:08.407Z,13.05
2018-03-23T02:48:35.911Z,20.65
2018-03-23T02:51:03.423Z,18.60
2018-03-23T02:53:31.721Z,23.20
2018-03-23T02:55:59.206Z,15.80
2018-03-23T02:58:26.711Z,17.00
2018-03-23T03:00:55.102Z,17.70
2018-03-23T03:03:22.674Z,17.70
2018-03-23T03:05:52.441Z,24.52
2018-03-23T03:08:19.983Z,16.45
2018-03-23T03:10:47.508Z,21.00
2018-03-23T03:13:15.783Z,22.35
2018-03-23T03:15:43.755Z,21.73
2018-03-23T03:18:12.036Z,20.27
2018-03-23T03:20:39.543Z,16.37
2018-03-23T03:23:07.047Z,18.12
2018-03-23T03:25:34.560Z,19.98
2018-03-23T03:28:02.070Z,18.40
2018-03-23T03:30:29.567Z,19.37
2018-03-23T03:32:57.841Z,18.37
2018-03-23T03:35:26.105Z,20.80
2018-03-23T03:37:53.615Z,17.33
2018-03-23T03:40:21.115Z,20.95
2018-03-23T03:42:48.622Z,17.12
2018-03-23T03:45:16.883Z,17.75
2018-03-23T03:47:44.388Z,19.75
2018-03-23T03:50:11.881Z,21.35
2018-03-23T03:52:39.399Z,19.85
2018-03-23T03:55:06.904Z,16.67
2018-03-23T03:57:34.418Z,16.95
2018-03-23T04:00:01.921Z,13.30
2018-03-23T04:02:29.508Z,20.85
2018-03-23T04:04:57.016Z,19.87
2018-03-23T04:07:24.529Z,15.32
2018-03-23T04:09:52.035Z,21.27
2018-03-23T04:12:20.339Z,19.02
2018-03-23T04:14:47.865Z,18.00
2018-03-23T04:17:15.414Z,22.50
2018-03-23T04:19:42.911Z,16.67
2018-03-23T04:22:11.263Z,15.83
2018-03-23T04:24:38.937Z,20.67
2018-03-23T04:27:07.234Z,15.52
2018-03-23T04:29:35.506Z,17.50
2018-03-23T04:32:03.759Z,20.42
2018-03-23T04:34:31.271Z,46.33
2018-03-23T04:36:58.778Z,19.15
2018-03-23T04:39:26.286Z,17.70
2018-03-23T04:41:53.789Z,15.68
2018-03-23T04:44:21.291Z,18.42
2018-03-23T04:46:48.789Z,13.90
2018-03-23T04:49:16.359Z,19.17
2018-03-23T04:51:44.591Z,17.85
2018-03-23T04:54:13.617Z,14.30
2018-03-23T04:56:41.891Z,15.30
2018-03-23T04:59:10.251Z,16.87
2018-03-23T05:01:38.549Z,15.18
2018-03-23T05:04:06.865Z,18.50
2018-03-23T05:06:34.369Z,14.27
2018-03-23T05:09:02.688Z,11.38
2018-03-23T05:11:30.964Z,13.40
2018-03-23T05:13:59.237Z,17.67
2018-03-23T05:16:27.501Z,20.20
2018-03-23T05:18:55.025Z,14.90
2018-03-23T05:21:23.048Z,18.27
2018-03-23T05:23:51.347Z,17.43
2018-03-23T05:26:19.704Z,15.60
2018-03-23T05:28:47.367Z,21.67
2018-03-23T05:31:14.865Z,18.33
2018-03-23T05:33:42.379Z,19.40
2018-03-23T05:36:11.049Z,15.68
2018-03-23T05:38:38.561Z,18.60
2018-03-23T05:41:06.081Z,18.98
2018-03-23T05:43:33.585Z,17.98
2018-03-23T05:46:01.104Z,21.80
2018-03-23T05:48:28.632Z,17.02
2018-03-23T05:50:56.995Z,16.93
2018-03-23T05:53:24.576Z,21.80
2018-03-23T05:55:52.854Z,20.73
2018-03-23T05:58:21.159Z,19.57
2018-03-23T06:00:48.781Z,16.13
2018-03-23T06:03:16.306Z,21.00
2018-03-23T06:05:43.813Z,18.10
2018-03-23T06:08:11.305Z,20.43
2018-03-23T06:10:39.701Z,21.03
2018-03-23T06:13:07.222Z,19.25
2018-03-23T06:15:34.730Z,19.73
2018-03-23T06:18:03.077Z,22.87
2018-03-23T06:20:31.360Z,22.83
2018-03-23T06:22:59.638Z,21.00
2018-03-23T06:25:27.932Z,23.83
2018-03-23T06:27:56.236Z,21.33
2018-03-23T06:30:23.775Z,23.67
2018-03-23T06:32:52.064Z,20.77
2018-03-23T06:35:20.335Z,21.73
2018-03-23T06:37:48.608Z,19.17
2018-03-23T06:40:16.163Z,23.90
2018-03-23T06:42:44.468Z,20.80
2018-03-23T06:45:12.750Z,23.10
2018-03-23T06:47:41.033Z,22.27
2018-03-23T06:50:09.315Z,22.67
2018-03-23T06:52:37.570Z,17.97
2018-03-23T06:55:05.857Z,18.57
2018-03-23T06:57:34.118Z,22.30
2018-03-23T07:00:01.735Z,22.10
2018-03-23T07:02:29.246Z,23.50
2018-03-23T07:04:56.751Z,20.03
2018-03-23T07:07:25.000Z,23.67
2018-03-23T07:09:52.521Z,23.60
2018-03-23T07:12:20.001Z,21.53
2018-03-23T07:14:47.640Z,21.57
2018-03-23T07:17:15.163Z,22.23
2018-03-23T07:19:43.567Z,20.80
2018-03-23T07:22:11.851Z,24.17
2018-03-23T07:24:40.235Z,24.43
2018-03-23T07:27:07.755Z,22.87
2018-03-23T07:29:35.273Z,27.27
2018-03-23T07:32:02.755Z,23.83
2018-03-23T07:34:30.291Z,30.00
2018-03-23T07:36:57.876Z,24.30
2018-03-23T07:39:25.401Z,23.80
2018-03-23T07:41:53.685Z,25.17
2018-03-23T07:44:22.018Z,21.80
2018-03-23T07:46:49.646Z,28.23
2018-03-23T07:49:18.351Z,23.90
2018-03-23T07:51:45.846Z,25.33
2018-03-23T07:54:13.358Z,25.63
2018-03-23T07:56:41.670Z,26.43
2018-03-23T07:59:09.180Z,25.80
2018-03-23T08:01:36.736Z,27.37
2018-03-23T08:04:04.240Z,27.17
2018-03-23T08:06:31.795Z,23.47
2018-03-23T08:08:59.295Z,26.50
2018-03-23T08:11:26.818Z,22.40
2018-03-23T08:13:55.113Z,24.93
2018-03-23T08:16:22.615Z,25.10
2018-03-23T08:18:50.149Z,21.70
2018-03-23T08:21:17.656Z,32.07
2018-03-23T08:23:45.297Z,25.83
2018-03-23T08:26:12.834Z,21.63
2018-03-23T08:28:40.343Z,24.03
2018-03-23T08:31:07.917Z,24.70
2018-03-23T08:33:35.413Z,20.90
2018-03-23T08:36:03.770Z,30.93
2018-03-23T08:38:31.275Z,27.90
2018-03-23T08:40:58.779Z,25.70
2018-03-23T08:43:26.677Z,24.47
2018-03-23T08:45:54.968Z,28.20
2018-03-23T08:48:23.238Z,22.60
2018-03-23T08:50:50.761Z,35.10
2018-03-23T08:53:18.409Z,22.47
2018-03-23T08:55:45.954Z,20.00
2018-03-23T08:58:13.449Z,23.73
2018-03-23T09:00:40.990Z,22.50
2018-03-23T09:03:08.601Z,25.57
2018-03-23T09:05:36.125Z,20.30
2018-03-23T09:08:03.637Z,22.33
2018-03-23T09:10:31.935Z,26.23
2018-03-23T09:12:59.443Z,26.00
2018-03-23T09:15:27.838Z,21.90
2018-03-23T09:17:55.959Z,23.77
2018-03-23T09:20:23.585Z,24.17
2018-03-23T09:22:51.089Z,20.27
2018-03-23T09:25:19.368Z,24.37
2018-03-23T09:27:47.616Z,26.70
2018-03-23T09:30:15.259Z,29.30
2018-03-23T09:32:42.811Z,24.47
2018-03-23T09:35:10.307Z,20.37
2018-03-23T09:37:37.797Z,29.80
2018-03-23T09:40:05.313Z,21.37
2018-03-23T09:42:32.991Z,24.47
2018-03-23T09:45:00.521Z,23.70
2018-03-23T09:47:28.024Z,27.13
2018-03-23T09:49:55.646Z,26.43
2018-03-23T09:52:23.189Z,23.33
2018-03-23T09:54:51.519Z,24.87
2018-03-23T09:57:19.029Z,24.80
2018-03-23T09:59:47.935Z,21.40
2018-03-23T10:02:16.537Z,21.67
2018-03-23T10:04:44.219Z,24.00
2018-03-23T10:07:11.764Z,26.40
2018-03-23T10:09:40.361Z,23.97
2018-03-23T10:12:07.861Z,27.23
2018-03-23T10:14:35.352Z,23.53
2018-03-23T10:17:02.855Z,27.17
2018-03-23T10:19:30.431Z,25.57
2018-03-23T10:21:58.661Z,28.13
2018-03-23T10:24:26.173Z,31.37
2018-03-23T10:26:53.718Z,29.37
2018-03-23T10:29:21.257Z,29.20
2018-03-23T10:31:48.754Z,33.60
2018-03-23T10:34:16.281Z,27.30
2018-03-23T10:36:44.651Z,42.63
2018-03-23T10:39:12.206Z,28.33
2018-03-23T10:41:39.723Z,28.40
2018-03-23T10:44:07.286Z,28.30
2018-03-23T10:46:34.784Z,27.00
2018-03-23T10:49:02.373Z,30.20
2018-03-23T10:51:29.879Z,33.33
2018-03-23T10:53:57.418Z,28.50
2018-03-23T10:56:25.003Z,22.63
2018-03-23T11:01:31.393Z,24.80
2018-03-23T11:03:58.915Z,27.13
2018-03-23T11:06:26.415Z,26.93
2018-03-23T11:08:53.967Z,32.63
2018-03-23T11:11:22.263Z,33.20
2018-03-23T11:13:49.888Z,27.00
2018-03-23T11:16:17.459Z,26.90
2018-03-23T11:18:45.064Z,23.13
2018-03-23T11:21:12.571Z,25.90
2018-03-23T11:23:40.305Z,22.23
2018-03-23T11:26:07.803Z,49.73
2018-03-23T11:28:35.821Z,30.20
2018-03-23T11:31:04.091Z,33.70
2018-03-23T11:33:32.428Z,29.27
2018-03-23T11:35:59.931Z,26.33
2018-03-23T11:38:28.217Z,26.87
2018-03-23T11:40:56.497Z,27.63
2018-03-23T11:43:24.778Z,26.07
2018-03-23T11:45:53.059Z,23.60
2018-03-23T11:48:21.335Z,22.87
2018-03-23T11:50:49.295Z,24.17
2018-03-23T11:53:16.759Z,18.63
2018-03-23T11:55:45.075Z,21.00
2018-03-23T11:58:12.629Z,19.80
2018-03-23T12:00:40.902Z,23.03
2018-03-23T12:03:09.179Z,20.80
2018-03-23T12:05:38.926Z,23.53
2018-03-23T12:08:06.449Z,21.07
2018-03-23T12:10:34.715Z,23.00
2018-03-23T12:13:02.215Z,19.37
2018-03-23T12:15:30.423Z,23.70
2018-03-23T12:17:57.905Z,19.33
2018-03-23T12:20:25.414Z,19.90
2018-03-23T12:22:53.680Z,20.77
2018-03-23T12:25:22.474Z,24.67
2018-03-23T12:27:51.079Z,22.73
2018-03-23T12:30:19.468Z,22.57
2018-03-23T12:32:47.315Z,19.57
2018-03-23T12:35:15.721Z,24.53
2018-03-23T12:37:43.229Z,23.10
2018-03-23T12:40:10.832Z,21.60
2018-03-23T12:42:38.318Z,22.00
2018-03-23T12:45:05.851Z,30.93
2018-03-23T12:47:33.349Z,23.63
2018-03-23T12:50:00.879Z,20.20
2018-03-23T12:52:29.153Z,22.90
2018-03-23T12:54:56.711Z,21.07
2018-03-23T12:57:24.241Z,22.70
2018-03-23T12:59:52.701Z,18.37
2018-03-23T13:02:20.195Z,19.77
2018-03-23T13:04:47.719Z,21.40
2018-03-23T13:07:16.013Z,27.30
2018-03-23T13:09:43.529Z,30.07
2018-03-23T13:12:12.548Z,22.47
2018-03-23T13:14:40.070Z,21.20
2018-03-23T13:17:07.587Z,18.60
2018-03-23T13:19:35.863Z,26.20
2018-03-23T13:22:04.111Z,18.70
2018-03-23T13:24:32.200Z,20.57
2018-03-23T13:27:01.018Z,19.47
2018-03-23T13:29:29.344Z,20.10
2018-03-23T13:31:56.888Z,18.97
2018-03-23T13:34:24.386Z,21.17
2018-03-23T13:36:51.886Z,20.07
2018-03-23T13:39:20.211Z,24.67
2018-03-23T13:41:47.703Z,22.63
2018-03-23T13:44:15.663Z,22.10
2018-03-23T13:46:43.152Z,21.43
2018-03-23T13:49:10.669Z,21.17
2018-03-23T13:51:38.178Z,22.27
2018-03-23T13:54:05.812Z,19.07
2018-03-23T13:56:33.356Z,30.20
2018-03-23T13:59:06.617Z,30.67
2018-03-23T14:01:40.975Z,24.90
2018-03-23T14:04:08.489Z,22.30
2018-03-23T14:06:36.002Z,22.67
2018-03-23T14:09:03.517Z,29.03
2018-03-23T14:11:31.831Z,18.63
2018-03-23T14:13:59.376Z,29.50
2018-03-23T14:16:26.925Z,22.37
2018-03-23T14:18:55.209Z,21.83
2018-03-23T14:21:23.559Z,20.00
2018-03-23T14:23:51.149Z,22.50
2018-03-23T14:26:18.717Z,23.03
2018-03-23T14:28:46.295Z,22.73
2018-03-23T14:31:13.781Z,23.47
2018-03-23T14:33:41.283Z,17.60
2018-03-23T14:36:08.851Z,21.17
2018-03-23T14:38:36.371Z,22.30
2018-03-23T14:41:03.945Z,31.37
2018-03-23T14:43:31.480Z,25.00
2018-03-23T14:45:59.819Z,23.67
2018-03-23T14:48:27.463Z,25.87
2018-03-23T14:50:55.177Z,21.30
2018-03-23T14:53:22.717Z,22.60
2018-03-23T14:55:50.229Z,21.97
2018-03-23T14:58:18.517Z,25.03
2018-03-23T15:00:46.066Z,20.43
2018-03-23T15:03:14.375Z,28.20
2018-03-23T15:05:41.877Z,22.23
2018-03-23T15:08:09.395Z,21.00
2018-03-23T15:10:36.946Z,25.13
2018-03-23T15:13:04.477Z,27.10
2018-03-23T15:15:31.988Z,24.43
2018-03-23T15:17:59.506Z,24.17
2018-03-23T15:20:27.778Z,27.63
2018-03-23T15:22:55.351Z,30.27
2018-03-23T15:25:22.907Z,29.40
2018-03-23T15:27:50.550Z,25.10
2018-03-23T15:30:18.089Z,32.50
2018-03-23T15:32:45.815Z,32.93
2018-03-23T15:35:14.193Z,30.37
2018-03-23T15:37:41.704Z,34.13
2018-03-23T15:40:09.323Z,32.97
2018-03-23T15:42:36.869Z,28.47
2018-03-23T15:45:04.387Z,25.87
2018-03-23T15:47:31.934Z,25.10
2018-03-23T15:50:01.153Z,31.27
2018-03-23T15:52:29.280Z,30.80
2018-03-23T15:54:56.769Z,32.40
2018-03-23T15:57:24.367Z,31.07
2018-03-23T15:59:51.883Z,29.53
2018-03-23T16:02:19.408Z,30.07
2018-03-23T16:04:46.937Z,33.27
2018-03-23T16:07:15.389Z,28.93
2018-03-23T16:09:42.921Z,33.80
2018-03-23T16:12:10.504Z,43.77
2018-03-23T16:14:38.182Z,32.70
2018-03-23T16:17:05.727Z,43.23
2018-03-23T16:19:33.372Z,31.33
2018-03-23T16:22:00.867Z,30.30
2018-03-23T16:24:28.378Z,26.50
2018-03-23T16:26:56.681Z,30.67
2018-03-23T16:29:24.204Z,34.30
2018-03-23T16:31:52.484Z,33.97
2018-03-23T16:34:20.085Z,31.10
2018-03-23T16:36:47.607Z,36.70
2018-03-23T16:39:15.167Z,59.53
2018-03-23T16:41:42.783Z,59.40
2018-03-23T16:44:10.398Z,40.97
2018-03-23T16:46:37.919Z,36.37
2018-03-23T16:49:05.457Z,44.60
2018-03-23T16:51:34.073Z,33.40
2018-03-23T16:54:02.575Z,41.03
2018-03-23T16:56:30.116Z,44.70
2018-03-23T16:58:59.508Z,37.17
2018-03-23T17:01:27.164Z,39.63
2018-03-23T17:03:55.487Z,50.47
2018-03-23T17:06:23.755Z,36.93
2018-03-23T17:08:51.289Z,38.03
2018-03-23T17:11:19.563Z,39.47
2018-03-23T17:13:48.037Z,41.97
2018-03-23T17:16:16.322Z,38.93
2018-03-23T17:18:44.605Z,42.43
2018-03-23T17:21:12.151Z,36.73
2018-03-23T17:23:39.646Z,47.73
2018-03-23T17:26:07.933Z,38.20
2018-03-23T17:28:35.805Z,36.57
2018-03-23T17:31:03.323Z,36.70
2018-03-23T17:33:30.823Z,35.30
2018-03-23T17:35:59.105Z,35.00
2018-03-23T17:38:27.395Z,38.50
2018-03-23T17:40:54.903Z,38.13
2018-03-23T17:43:22.440Z,32.77
2018-03-23T17:45:50.000Z,45.00
2018-03-23T17:48:17.586Z,47.23
2018-03-23T17:50:45.099Z,35.73
2018-03-23T17:53:12.675Z,35.10
2018-03-23T17:55:40.187Z,33.87
2018-03-23T17:58:07.708Z,31.20
2018-03-23T18:00:36.026Z,33.57
2018-03-23T18:03:03.540Z,43.73
2018-03-23T18:05:33.424Z,36.87
2018-03-23T18:08:00.958Z,40.50
2018-03-23T18:10:28.474Z,34.73
2018-03-23T18:12:55.980Z,37.47
2018-03-23T18:15:23.533Z,30.40
2018-03-23T18:17:51.018Z,36.10
2018-03-23T18:20:21.526Z,40.93
2018-03-23T18:22:51.586Z,36.63
2018-03-23T18:25:19.421Z,36.07
2018-03-23T18:27:47.032Z,44.80
2018-03-23T18:30:15.633Z,35.33
2018-03-23T18:32:44.345Z,36.10
2018-03-23T18:35:11.882Z,32.37
2018-03-23T18:37:39.381Z,33.53
2018-03-23T18:40:06.906Z,33.20
2018-03-23T18:42:34.409Z,28.23
2018-03-23T18:45:02.706Z,45.23
2018-03-23T18:47:30.225Z,34.30
2018-03-23T18:49:58.514Z,31.70
2018-03-23T18:52:26.835Z,35.87
2018-03-23T18:54:54.467Z,37.60
2018-03-23T18:57:23.138Z,34.30
2018-03-23T18:59:51.521Z,31.43
2018-03-23T19:02:19.041Z,33.27
2018-03-23T19:04:46.739Z,31.27
2018-03-23T19:07:14.405Z,31.90
2018-03-23T19:09:41.940Z,32.17
2018-03-23T19:12:09.514Z,29.00
2018-03-23T19:14:38.216Z,29.50
2018-03-23T19:17:05.731Z,30.00
2018-03-23T19:19:33.989Z,30.30
2018-03-23T19:22:01.579Z,42.00
2018-03-23T19:24:29.217Z,33.27
2018-03-23T19:26:58.265Z,50.93
2018-03-23T19:29:26.380Z,34.53
2018-03-23T19:31:53.913Z,36.13
2018-03-23T19:34:21.518Z,44.70
2018-03-23T19:36:49.076Z,41.53
2018-03-23T19:39:16.603Z,37.60
2018-03-23T19:41:44.173Z,35.17
2018-03-23T19:44:11.791Z,31.10
2018-03-23T19:46:40.494Z,35.57
2018-03-23T19:49:08.498Z,32.20
2018-03-23T19:51:36.032Z,33.60
2018-03-23T19:54:03.564Z,33.10
2018-03-23T19:56:31.190Z,30.80
2018-03-23T19:58:59.465Z,35.50
2018-03-23T20:01:27.022Z,35.17
2018-03-23T20:03:54.743Z,32.83
2018-03-23T20:06:22.270Z,37.60
2018-03-23T20:08:50.302Z,35.00
2018-03-23T20:11:18.636Z,32.73
2018-03-23T20:14:04.922Z,35.83
2018-03-23T20:16:32.464Z,37.23
2018-03-23T20:18:59.997Z,37.80
2018-03-23T20:21:27.918Z,32.83
2018-03-23T20:26:55.946Z,39.80
2018-03-23T20:29:24.210Z,35.60
2018-03-23T20:31:57.511Z,36.77
2018-03-23T20:34:25.006Z,44.10
2018-03-23T20:36:52.622Z,43.73
2018-03-23T20:39:20.250Z,40.50
2018-03-23T20:41:49.461Z,51.33
2018-03-23T20:44:16.964Z,41.43
2018-03-23T20:46:45.235Z,42.77
2018-03-23T20:49:14.640Z,44.50
2018-03-23T20:51:42.175Z,39.73
2018-03-23T20:54:10.158Z,37.22
2018-03-23T20:56:37.925Z,39.38
2018-03-23T20:59:05.486Z,46.00
2018-03-23T21:01:33.179Z,43.57
2018-03-23T21:04:00.699Z,52.87
2018-03-23T21:06:28.197Z,44.43
2018-03-23T21:08:55.840Z,44.27
2018-03-23T21:11:23.444Z,47.20
2018-03-23T21:13:51.799Z,45.17
2018-03-23T21:16:19.422Z,39.40
2018-03-23T21:18:47.699Z,46.07
2018-03-23T21:21:15.972Z,45.90
2018-03-23T21:23:44.283Z,42.77
2018-03-23T21:26:11.801Z,47.07
2018-03-23T21:28:39.322Z,48.80
2018-03-23T21:31:06.822Z,37.10
2018-03-23T21:33:34.551Z,41.70
2018-03-23T21:36:02.093Z,51.20
2018-03-23T21:38:30.406Z,47.63
2018-03-23T21:40:57.905Z,44.50
2018-03-23T21:43:25.400Z,51.70
2018-03-23T21:45:55.417Z,40.20
2018-03-23T21:48:23.000Z,44.40
2018-03-23T21:50:50.487Z,43.43
2018-03-23T21:53:17.979Z,45.17
2018-03-23T21:55:45.492Z,45.90
2018-03-23T21:58:13.203Z,43.07
2018-03-23T22:00:40.719Z,67.80
2018-03-23T22:03:08.332Z,43.93
2018-03-23T22:05:35.828Z,44.83
2018-03-23T22:08:04.110Z,39.70
2018-03-23T22:10:32.373Z,37.20
2018-03-23T22:13:00.661Z,64.07
2018-03-23T22:15:28.962Z,36.27
2018-03-23T22:17:56.481Z,39.13
2018-03-23T22:20:23.977Z,38.60
2018-03-23T22:22:52.268Z,39.15
2018-03-23T22:25:19.780Z,33.50
2018-03-23T22:27:47.708Z,46.07
2018-03-23T22:30:16.124Z,29.90
2018-03-23T22:32:43.714Z,40.47
2018-03-23T22:35:11.856Z,38.67
2018-03-23T22:37:39.357Z,39.03
2018-03-23T22:40:07.135Z,39.17
2018-03-23T22:42:35.507Z,37.73
2018-03-23T22:45:03.061Z,35.10
2018-03-23T22:47:30.554Z,35.93
2018-03-23T22:49:59.369Z,36.37
2018-03-23T22:52:26.878Z,33.35
2018-03-23T22:54:54.419Z,34.87
2018-03-23T22:57:22.011Z,37.90
2018-03-23T22:59:49.547Z,30.48
2018-03-23T23:02:17.082Z,36.67
2018-03-23T23:04:45.402Z,33.33
2018-03-23T23:07:14.110Z,31.55
2018-03-23T23:09:41.616Z,35.13
2018-03-23T23:12:09.137Z,36.50
2018-03-23T23:14:36.649Z,37.17
2018-03-23T23:17:04.167Z,28.83
2018-03-23T23:19:31.688Z,36.00
2018-03-23T23:21:59.804Z,36.67
2018-03-23T23:24:27.295Z,34.57
2018-03-23T23:26:54.817Z,29.80
2018-03-23T23:29:22.330Z,31.83
2018-03-23T23:31:50.588Z,33.17
2018-03-23T23:34:18.075Z,31.83
2018-03-23T23:36:46.348Z,33.10
2018-03-23T23:39:14.621Z,32.63
2018-03-23T23:41:42.942Z,33.70
2018-03-23T23:44:10.447Z,33.50
2018-03-23T23:46:37.957Z,35.90
2018-03-23T23:49:06.505Z,32.97
2018-03-23T23:51:34.783Z,31.33
2018-03-23T23:54:03.272Z,30.10
2018-03-23T23:56:30.781Z,30.67
2018-03-23T23:58:58.283Z,41.37
